sensor_id;sensor_type;location;lat;lon;timestamp;P1;durP1;ratioP1;P2;durP2;ratioP2
4986;SDS011;12674;51.500;7.552;2022-09-25T00:01:15;25.03;;;18.80;;
4986;SDS011;12674;51.500;7.552;2022-09-25T00:03:20;24.20;;;18.07;;
4986;SDS011;12674;51.500;7.552;2022-09-25T00:05:25;23.60;;;17.70;;
4986;SDS011;12674;51.500;7.552;2022-09-25T00:07:28;24.90;;;17.70;;
4986;SDS011;12674;51.500;7.552;2022-09-25T00:09:34;24.37;;;17.90;;
4986;SDS011;12674;51.500;7.552;2022-09-25T00:11:37;20.93;;;16.53;;
4986;SDS011;12674;51.500;7.552;2022-09-25T00:13:40;36.83;;;17.00;;
4986;SDS011;12674;51.500;7.552;2022-09-25T00:15:45;25.43;;;17.87;;
4986;SDS011;12674;51.500;7.552;2022-09-25T00:17:49;29.23;;;18.10;;
4986;SDS011;12674;51.500;7.552;2022-09-25T00:19:52;30.23;;;16.87;;
4986;SDS011;12674;51.500;7.552;2022-09-25T00:21:54;28.20;;;17.00;;
4986;SDS011;12674;51.500;7.552;2022-09-25T00:23:57;26.83;;;16.53;;
4986;SDS011;12674;51.500;7.552;2022-09-25T00:26:03;24.10;;;18.13;;
4986;SDS011;12674;51.500;7.552;2022-09-25T00:28:11;28.97;;;18.87;;
4986;SDS011;12674;51.500;7.552;2022-09-25T00:30:18;27.93;;;16.80;;
4986;SDS011;12674;51.500;7.552;2022-09-25T00:32:21;25.03;;;17.27;;
4986;SDS011;12674;51.500;7.552;2022-09-25T00:34:24;26.70;;;16.47;;
4986;SDS011;12674;51.500;7.552;2022-09-25T00:36:27;24.33;;;16.03;;
4986;SDS011;12674;51.500;7.552;2022-09-25T00:38:31;26.20;;;16.17;;
4986;SDS011;12674;51.500;7.552;2022-09-25T00:40:34;23.00;;;15.50;;
4986;SDS011;12674;51.500;7.552;2022-09-25T00:42:39;27.03;;;15.37;;
4986;SDS011;12674;51.500;7.552;2022-09-25T00:44:50;25.53;;;13.93;;
4986;SDS011;12674;51.500;7.552;2022-09-25T00:46:57;20.80;;;13.70;;
4986;SDS011;12674;51.500;7.552;2022-09-25T00:49:00;20.03;;;12.97;;
4986;SDS011;12674;51.500;7.552;2022-09-25T00:51:08;25.60;;;13.70;;
4986;SDS011;12674;51.500;7.552;2022-09-25T00:53:11;22.50;;;14.57;;
4986;SDS011;12674;51.500;7.552;2022-09-25T00:55:15;25.20;;;14.67;;
4986;SDS011;12674;51.500;7.552;2022-09-25T00:57:19;25.20;;;13.60;;
4986;SDS011;12674;51.500;7.552;2022-09-25T00:59:29;22.23;;;14.83;;
4986;SDS011;12674;51.500;7.552;2022-09-25T01:01:33;22.90;;;13.37;;
4986;SDS011;12674;51.500;7.552;2022-09-25T01:03:36;27.63;;;15.80;;
4986;SDS011;12674;51.500;7.552;2022-09-25T01:05:40;25.00;;;15.23;;
4986;SDS011;12674;51.500;7.552;2022-09-25T01:07:44;25.30;;;13.87;;
4986;SDS011;12674;51.500;7.552;2022-09-25T01:09:48;24.37;;;13.07;;
4986;SDS011;12674;51.500;7.552;2022-09-25T01:11:52;23.77;;;13.70;;
4986;SDS011;12674;51.500;7.552;2022-09-25T01:13:56;19.70;;;12.87;;
4986;SDS011;12674;51.500;7.552;2022-09-25T01:16:04;23.20;;;13.43;;
4986;SDS011;12674;51.500;7.552;2022-09-25T01:18:16;24.07;;;14.10;;
4986;SDS011;12674;51.500;7.552;2022-09-25T01:20:30;24.07;;;12.77;;
4986;SDS011;12674;51.500;7.552;2022-09-25T01:22:45;28.60;;;12.53;;
4986;SDS011;12674;51.500;7.552;2022-09-25T01:24:58;17.00;;;10.80;;
4986;SDS011;12674;51.500;7.552;2022-09-25T01:29:44;17.10;;;9.20;;
4986;SDS011;12674;51.500;7.552;2022-09-25T01:31:52;17.63;;;8.80;;
4986;SDS011;12674;51.500;7.552;2022-09-25T01:34:04;14.90;;;8.20;;
4986;SDS011;12674;51.500;7.552;2022-09-25T01:36:16;20.47;;;7.67;;
4986;SDS011;12674;51.500;7.552;2022-09-25T01:38:30;12.17;;;7.53;;
4986;SDS011;12674;51.500;7.552;2022-09-25T01:40:36;16.77;;;7.13;;
4986;SDS011;12674;51.500;7.552;2022-09-25T01:42:45;12.10;;;7.20;;
4986;SDS011;12674;51.500;7.552;2022-09-25T01:44:52;13.73;;;6.63;;
4986;SDS011;12674;51.500;7.552;2022-09-25T01:47:00;18.20;;;7.60;;
4986;SDS011;12674;51.500;7.552;2022-09-25T01:49:07;18.00;;;7.73;;
4986;SDS011;12674;51.500;7.552;2022-09-25T01:51:13;15.60;;;6.73;;
4986;SDS011;12674;51.500;7.552;2022-09-25T01:53:18;22.80;;;7.60;;
4986;SDS011;12674;51.500;7.552;2022-09-25T01:55:25;18.07;;;6.77;;
4986;SDS011;12674;51.500;7.552;2022-09-25T01:57:30;17.10;;;7.10;;
4986;SDS011;12674;51.500;7.552;2022-09-25T01:59:38;14.87;;;6.53;;
4986;SDS011;12674;51.500;7.552;2022-09-25T02:01:46;17.10;;;6.73;;
4986;SDS011;12674;51.500;7.552;2022-09-25T02:03:49;15.80;;;6.40;;
4986;SDS011;12674;51.500;7.552;2022-09-25T02:05:58;17.27;;;6.67;;
4986;SDS011;12674;51.500;7.552;2022-09-25T02:08:04;13.13;;;7.30;;
4986;SDS011;12674;51.500;7.552;2022-09-25T02:10:13;17.53;;;5.90;;
4986;SDS011;12674;51.500;7.552;2022-09-25T02:12:18;12.43;;;5.33;;
4986;SDS011;12674;51.500;7.552;2022-09-25T02:14:26;11.40;;;5.33;;
4986;SDS011;12674;51.500;7.552;2022-09-25T02:16:32;16.97;;;5.97;;
4986;SDS011;12674;51.500;7.552;2022-09-25T02:18:39;13.33;;;4.53;;
4986;SDS011;12674;51.500;7.552;2022-09-25T02:21:00;14.00;;;4.70;;
4986;SDS011;12674;51.500;7.552;2022-09-25T02:23:13;8.83;;;4.10;;
4986;SDS011;12674;51.500;7.552;2022-09-25T02:25:19;10.37;;;4.20;;
4986;SDS011;12674;51.500;7.552;2022-09-25T02:27:29;10.00;;;3.80;;
4986;SDS011;12674;51.500;7.552;2022-09-25T02:29:33;11.57;;;4.60;;
4986;SDS011;12674;51.500;7.552;2022-09-25T02:31:37;13.50;;;4.70;;
4986;SDS011;12674;51.500;7.552;2022-09-25T02:33:43;20.50;;;4.40;;
4986;SDS011;12674;51.500;7.552;2022-09-25T02:35:46;12.00;;;3.97;;
4986;SDS011;12674;51.500;7.552;2022-09-25T02:37:50;20.70;;;4.87;;
4986;SDS011;12674;51.500;7.552;2022-09-25T02:39:54;20.20;;;4.43;;
4986;SDS011;12674;51.500;7.552;2022-09-25T02:42:13;29.63;;;4.77;;
4986;SDS011;12674;51.500;7.552;2022-09-25T02:44:29;22.00;;;3.53;;
4986;SDS011;12674;51.500;7.552;2022-09-25T02:46:36;10.67;;;3.20;;
4986;SDS011;12674;51.500;7.552;2022-09-25T02:48:46;11.83;;;3.50;;
4986;SDS011;12674;51.500;7.552;2022-09-25T02:50:53;14.43;;;3.40;;
4986;SDS011;12674;51.500;7.552;2022-09-25T02:53:04;9.40;;;3.30;;
4986;SDS011;12674;51.500;7.552;2022-09-25T02:55:13;13.53;;;3.40;;
4986;SDS011;12674;51.500;7.552;2022-09-25T02:57:20;11.50;;;2.67;;
4986;SDS011;12674;51.500;7.552;2022-09-25T02:59:28;16.10;;;2.60;;
4986;SDS011;12674;51.500;7.552;2022-09-25T03:01:35;7.97;;;2.83;;
4986;SDS011;12674;51.500;7.552;2022-09-25T03:03:40;16.43;;;3.40;;
4986;SDS011;12674;51.500;7.552;2022-09-25T03:05:45;13.00;;;2.77;;
4986;SDS011;12674;51.500;7.552;2022-09-25T03:07:48;13.93;;;3.17;;
4986;SDS011;12674;51.500;7.552;2022-09-25T03:10:09;13.93;;;2.33;;
4986;SDS011;12674;51.500;7.552;2022-09-25T03:12:12;8.80;;;2.50;;
4986;SDS011;12674;51.500;7.552;2022-09-25T03:14:16;9.90;;;2.93;;
4986;SDS011;12674;51.500;7.552;2022-09-25T03:16:19;12.50;;;3.03;;
4986;SDS011;12674;51.500;7.552;2022-09-25T03:18:28;11.13;;;2.70;;
4986;SDS011;12674;51.500;7.552;2022-09-25T03:20:31;10.20;;;2.77;;
4986;SDS011;12674;51.500;7.552;2022-09-25T03:22:36;7.83;;;2.70;;
4986;SDS011;12674;51.500;7.552;2022-09-25T03:24:39;13.00;;;2.50;;
4986;SDS011;12674;51.500;7.552;2022-09-25T03:26:42;13.27;;;2.57;;
4986;SDS011;12674;51.500;7.552;2022-09-25T03:28:45;19.37;;;2.63;;
4986;SDS011;12674;51.500;7.552;2022-09-25T03:30:55;16.37;;;2.47;;
4986;SDS011;12674;51.500;7.552;2022-09-25T03:33:00;14.70;;;2.73;;
4986;SDS011;12674;51.500;7.552;2022-09-25T03:35:03;12.40;;;2.50;;
4986;SDS011;12674;51.500;7.552;2022-09-25T03:37:06;9.70;;;2.80;;
4986;SDS011;12674;51.500;7.552;2022-09-25T03:39:11;10.43;;;1.97;;
4986;SDS011;12674;51.500;7.552;2022-09-25T03:41:16;10.60;;;2.70;;
4986;SDS011;12674;51.500;7.552;2022-09-25T03:43:20;17.03;;;2.80;;
4986;SDS011;12674;51.500;7.552;2022-09-25T03:45:23;11.63;;;2.17;;
4986;SDS011;12674;51.500;7.552;2022-09-25T03:47:26;13.23;;;2.30;;
4986;SDS011;12674;51.500;7.552;2022-09-25T03:49:30;10.87;;;2.43;;
4986;SDS011;12674;51.500;7.552;2022-09-25T03:51:33;10.97;;;1.90;;
4986;SDS011;12674;51.500;7.552;2022-09-25T03:53:36;17.00;;;3.10;;
4986;SDS011;12674;51.500;7.552;2022-09-25T03:55:40;8.73;;;2.30;;
4986;SDS011;12674;51.500;7.552;2022-09-25T03:57:43;9.83;;;2.20;;
4986;SDS011;12674;51.500;7.552;2022-09-25T03:59:46;9.87;;;1.80;;
4986;SDS011;12674;51.500;7.552;2022-09-25T04:01:50;9.30;;;2.20;;
4986;SDS011;12674;51.500;7.552;2022-09-25T04:03:53;13.83;;;1.80;;
4986;SDS011;12674;51.500;7.552;2022-09-25T04:05:57;13.63;;;2.30;;
4986;SDS011;12674;51.500;7.552;2022-09-25T04:08:01;10.70;;;2.03;;
4986;SDS011;12674;51.500;7.552;2022-09-25T04:10:05;11.20;;;2.80;;
4986;SDS011;12674;51.500;7.552;2022-09-25T04:12:10;14.50;;;2.30;;
4986;SDS011;12674;51.500;7.552;2022-09-25T04:14:13;13.00;;;2.83;;
4986;SDS011;12674;51.500;7.552;2022-09-25T04:16:17;11.00;;;1.70;;
4986;SDS011;12674;51.500;7.552;2022-09-25T04:18:21;12.67;;;2.20;;
4986;SDS011;12674;51.500;7.552;2022-09-25T04:20:25;12.07;;;2.27;;
4986;SDS011;12674;51.500;7.552;2022-09-25T04:22:28;12.60;;;2.50;;
4986;SDS011;12674;51.500;7.552;2022-09-25T04:24:31;4.83;;;1.37;;
4986;SDS011;12674;51.500;7.552;2022-09-25T04:26:52;7.63;;;2.00;;
4986;SDS011;12674;51.500;7.552;2022-09-25T04:28:56;10.17;;;2.40;;
4986;SDS011;12674;51.500;7.552;2022-09-25T04:31:02;7.73;;;1.70;;
4986;SDS011;12674;51.500;7.552;2022-09-25T04:33:08;15.67;;;2.50;;
4986;SDS011;12674;51.500;7.552;2022-09-25T04:35:28;10.13;;;2.27;;
4986;SDS011;12674;51.500;7.552;2022-09-25T04:37:31;9.90;;;1.90;;
4986;SDS011;12674;51.500;7.552;2022-09-25T04:39:34;15.17;;;2.20;;
4986;SDS011;12674;51.500;7.552;2022-09-25T04:41:38;20.33;;;3.27;;
4986;SDS011;12674;51.500;7.552;2022-09-25T04:43:40;15.27;;;2.47;;
4986;SDS011;12674;51.500;7.552;2022-09-25T04:45:45;12.13;;;2.70;;
4986;SDS011;12674;51.500;7.552;2022-09-25T04:47:48;8.10;;;1.73;;
4986;SDS011;12674;51.500;7.552;2022-09-25T04:49:51;5.00;;;1.83;;
4986;SDS011;12674;51.500;7.552;2022-09-25T04:51:54;14.73;;;3.97;;
4986;SDS011;12674;51.500;7.552;2022-09-25T04:53:57;13.00;;;2.00;;
4986;SDS011;12674;51.500;7.552;2022-09-25T04:56:00;14.23;;;2.87;;
4986;SDS011;12674;51.500;7.552;2022-09-25T04:58:04;10.73;;;2.20;;
4986;SDS011;12674;51.500;7.552;2022-09-25T05:00:08;15.87;;;2.77;;
4986;SDS011;12674;51.500;7.552;2022-09-25T05:02:14;7.20;;;2.40;;
4986;SDS011;12674;51.500;7.552;2022-09-25T05:04:17;14.33;;;3.40;;
4986;SDS011;12674;51.500;7.552;2022-09-25T05:06:20;18.27;;;2.13;;
4986;SDS011;12674;51.500;7.552;2022-09-25T05:08:24;6.73;;;1.70;;
4986;SDS011;12674;51.500;7.552;2022-09-25T05:10:28;11.37;;;1.90;;
4986;SDS011;12674;51.500;7.552;2022-09-25T05:12:32;15.23;;;2.87;;
4986;SDS011;12674;51.500;7.552;2022-09-25T05:14:35;7.60;;;1.70;;
4986;SDS011;12674;51.500;7.552;2022-09-25T05:16:41;7.70;;;2.27;;
4986;SDS011;12674;51.500;7.552;2022-09-25T05:18:46;10.40;;;2.20;;
4986;SDS011;12674;51.500;7.552;2022-09-25T05:20:49;15.07;;;2.37;;
4986;SDS011;12674;51.500;7.552;2022-09-25T05:22:54;12.33;;;2.30;;
4986;SDS011;12674;51.500;7.552;2022-09-25T05:24:57;8.70;;;2.13;;
4986;SDS011;12674;51.500;7.552;2022-09-25T05:27:00;12.20;;;2.40;;
4986;SDS011;12674;51.500;7.552;2022-09-25T05:29:04;11.10;;;2.30;;
4986;SDS011;12674;51.500;7.552;2022-09-25T05:31:08;17.53;;;2.37;;
4986;SDS011;12674;51.500;7.552;2022-09-25T05:33:11;9.23;;;2.10;;
4986;SDS011;12674;51.500;7.552;2022-09-25T05:35:16;15.23;;;2.80;;
4986;SDS011;12674;51.500;7.552;2022-09-25T05:37:19;17.23;;;2.63;;
4986;SDS011;12674;51.500;7.552;2022-09-25T05:39:28;10.60;;;2.10;;
4986;SDS011;12674;51.500;7.552;2022-09-25T05:41:31;12.13;;;2.40;;
4986;SDS011;12674;51.500;7.552;2022-09-25T05:43:37;11.40;;;2.30;;
4986;SDS011;12674;51.500;7.552;2022-09-25T05:45:41;12.77;;;2.97;;
4986;SDS011;12674;51.500;7.552;2022-09-25T05:47:44;7.13;;;2.50;;
4986;SDS011;12674;51.500;7.552;2022-09-25T05:49:47;7.50;;;2.43;;
4986;SDS011;12674;51.500;7.552;2022-09-25T05:51:51;9.73;;;2.10;;
4986;SDS011;12674;51.500;7.552;2022-09-25T05:53:54;8.77;;;2.33;;
4986;SDS011;12674;51.500;7.552;2022-09-25T05:55:58;12.17;;;2.50;;
4986;SDS011;12674;51.500;7.552;2022-09-25T05:58:02;8.40;;;2.40;;
4986;SDS011;12674;51.500;7.552;2022-09-25T06:00:07;13.53;;;2.50;;
4986;SDS011;12674;51.500;7.552;2022-09-25T06:02:14;7.30;;;2.47;;
4986;SDS011;12674;51.500;7.552;2022-09-25T06:04:18;8.90;;;2.13;;
4986;SDS011;12674;51.500;7.552;2022-09-25T06:06:22;8.70;;;2.07;;
4986;SDS011;12674;51.500;7.552;2022-09-25T06:08:29;11.03;;;2.13;;
4986;SDS011;12674;51.500;7.552;2022-09-25T06:10:33;18.40;;;2.53;;
4986;SDS011;12674;51.500;7.552;2022-09-25T06:12:36;20.03;;;3.20;;
4986;SDS011;12674;51.500;7.552;2022-09-25T06:14:39;12.47;;;2.87;;
4986;SDS011;12674;51.500;7.552;2022-09-25T06:16:42;12.97;;;2.40;;
4986;SDS011;12674;51.500;7.552;2022-09-25T06:18:45;9.57;;;2.30;;
4986;SDS011;12674;51.500;7.552;2022-09-25T06:20:48;11.63;;;2.63;;
4986;SDS011;12674;51.500;7.552;2022-09-25T06:22:52;19.00;;;2.20;;
4986;SDS011;12674;51.500;7.552;2022-09-25T06:24:56;5.80;;;1.87;;
4986;SDS011;12674;51.500;7.552;2022-09-25T06:26:59;8.40;;;1.97;;
4986;SDS011;12674;51.500;7.552;2022-09-25T06:29:02;9.93;;;2.07;;
4986;SDS011;12674;51.500;7.552;2022-09-25T06:31:08;11.30;;;2.33;;
4986;SDS011;12674;51.500;7.552;2022-09-25T06:33:11;7.40;;;2.70;;
4986;SDS011;12674;51.500;7.552;2022-09-25T06:35:15;14.40;;;2.77;;
4986;SDS011;12674;51.500;7.552;2022-09-25T06:37:18;14.77;;;2.50;;
4986;SDS011;12674;51.500;7.552;2022-09-25T06:39:21;9.07;;;2.37;;
4986;SDS011;12674;51.500;7.552;2022-09-25T06:41:25;11.53;;;2.50;;
4986;SDS011;12674;51.500;7.552;2022-09-25T06:43:28;5.80;;;2.20;;
4986;SDS011;12674;51.500;7.552;2022-09-25T06:45:32;6.70;;;2.57;;
4986;SDS011;12674;51.500;7.552;2022-09-25T06:47:36;15.20;;;2.87;;
4986;SDS011;12674;51.500;7.552;2022-09-25T06:49:38;10.57;;;2.90;;
4986;SDS011;12674;51.500;7.552;2022-09-25T06:51:42;16.27;;;3.40;;
4986;SDS011;12674;51.500;7.552;2022-09-25T06:53:45;15.40;;;2.50;;
4986;SDS011;12674;51.500;7.552;2022-09-25T06:55:48;20.37;;;3.00;;
4986;SDS011;12674;51.500;7.552;2022-09-25T06:57:52;12.37;;;2.97;;
4986;SDS011;12674;51.500;7.552;2022-09-25T06:59:55;6.50;;;2.57;;
4986;SDS011;12674;51.500;7.552;2022-09-25T07:01:58;10.03;;;3.10;;
4986;SDS011;12674;51.500;7.552;2022-09-25T07:04:22;14.63;;;3.10;;
4986;SDS011;12674;51.500;7.552;2022-09-25T07:06:26;25.70;;;4.13;;
4986;SDS011;12674;51.500;7.552;2022-09-25T07:08:31;17.73;;;3.43;;
4986;SDS011;12674;51.500;7.552;2022-09-25T07:10:35;15.63;;;3.70;;
4986;SDS011;12674;51.500;7.552;2022-09-25T07:12:41;18.70;;;3.77;;
4986;SDS011;12674;51.500;7.552;2022-09-25T07:14:45;13.60;;;3.83;;
4986;SDS011;12674;51.500;7.552;2022-09-25T07:16:48;8.73;;;2.67;;
4986;SDS011;12674;51.500;7.552;2022-09-25T07:18:51;9.73;;;3.43;;
4986;SDS011;12674;51.500;7.552;2022-09-25T07:20:58;9.80;;;3.50;;
4986;SDS011;12674;51.500;7.552;2022-09-25T07:23:01;20.75;;;4.30;;
4986;SDS011;12674;51.500;7.552;2022-09-25T07:25:05;9.55;;;2.92;;
4986;SDS011;12674;51.500;7.552;2022-09-25T07:27:09;15.90;;;3.72;;
4986;SDS011;12674;51.500;7.552;2022-09-25T07:29:12;10.80;;;3.92;;
4986;SDS011;12674;51.500;7.552;2022-09-25T07:31:17;16.95;;;3.72;;
4986;SDS011;12674;51.500;7.552;2022-09-25T07:33:21;18.27;;;4.05;;
4986;SDS011;12674;51.500;7.552;2022-09-25T07:35:25;12.10;;;4.20;;
4986;SDS011;12674;51.500;7.552;2022-09-25T07:37:28;10.90;;;3.47;;
4986;SDS011;12674;51.500;7.552;2022-09-25T07:39:31;14.05;;;3.75;;
4986;SDS011;12674;51.500;7.552;2022-09-25T07:41:35;16.73;;;3.45;;
4986;SDS011;12674;51.500;7.552;2022-09-25T07:43:38;12.48;;;3.28;;
4986;SDS011;12674;51.500;7.552;2022-09-25T07:45:47;16.42;;;3.92;;
4986;SDS011;12674;51.500;7.552;2022-09-25T07:47:55;10.88;;;2.53;;
4986;SDS011;12674;51.500;7.552;2022-09-25T07:49:58;17.35;;;3.65;;
4986;SDS011;12674;51.500;7.552;2022-09-25T07:52:01;14.98;;;3.08;;
4986;SDS011;12674;51.500;7.552;2022-09-25T07:54:06;11.18;;;2.47;;
4986;SDS011;12674;51.500;7.552;2022-09-25T07:56:09;11.93;;;2.88;;
4986;SDS011;12674;51.500;7.552;2022-09-25T07:58:13;10.05;;;2.63;;
4986;SDS011;12674;51.500;7.552;2022-09-25T08:00:16;9.65;;;2.80;;
4986;SDS011;12674;51.500;7.552;2022-09-25T08:02:20;13.45;;;2.72;;
4986;SDS011;12674;51.500;7.552;2022-09-25T08:04:24;10.98;;;2.83;;
4986;SDS011;12674;51.500;7.552;2022-09-25T08:06:27;8.95;;;2.50;;
4986;SDS011;12674;51.500;7.552;2022-09-25T08:08:31;12.60;;;2.42;;
4986;SDS011;12674;51.500;7.552;2022-09-25T08:10:35;7.43;;;2.25;;
4986;SDS011;12674;51.500;7.552;2022-09-25T08:12:38;10.00;;;2.50;;
4986;SDS011;12674;51.500;7.552;2022-09-25T08:14:42;8.57;;;2.13;;
4986;SDS011;12674;51.500;7.552;2022-09-25T08:16:46;9.18;;;2.35;;
4986;SDS011;12674;51.500;7.552;2022-09-25T08:18:49;12.02;;;2.13;;
4986;SDS011;12674;51.500;7.552;2022-09-25T08:20:53;9.80;;;2.45;;
4986;SDS011;12674;51.500;7.552;2022-09-25T08:22:56;9.80;;;2.45;;
4986;SDS011;12674;51.500;7.552;2022-09-25T08:24:59;7.68;;;1.75;;
4986;SDS011;12674;51.500;7.552;2022-09-25T08:27:03;8.45;;;2.42;;
4986;SDS011;12674;51.500;7.552;2022-09-25T08:29:08;8.38;;;2.00;;
4986;SDS011;12674;51.500;7.552;2022-09-25T08:31:11;7.72;;;2.15;;
4986;SDS011;12674;51.500;7.552;2022-09-25T08:33:15;12.10;;;2.42;;
4986;SDS011;12674;51.500;7.552;2022-09-25T08:35:18;10.18;;;2.70;;
4986;SDS011;12674;51.500;7.552;2022-09-25T08:37:24;12.57;;;2.25;;
4986;SDS011;12674;51.500;7.552;2022-09-25T08:39:28;13.35;;;2.65;;
4986;SDS011;12674;51.500;7.552;2022-09-25T08:41:31;17.38;;;2.90;;
4986;SDS011;12674;51.500;7.552;2022-09-25T08:43:36;14.25;;;2.00;;
4986;SDS011;12674;51.500;7.552;2022-09-25T08:45:42;14.02;;;2.30;;
4986;SDS011;12674;51.500;7.552;2022-09-25T08:48:08;7.13;;;2.20;;
4986;SDS011;12674;51.500;7.552;2022-09-25T08:50:38;7.57;;;2.45;;
4986;SDS011;12674;51.500;7.552;2022-09-25T08:52:44;12.32;;;2.88;;
4986;SDS011;12674;51.500;7.552;2022-09-25T08:54:49;13.40;;;2.38;;
4986;SDS011;12674;51.500;7.552;2022-09-25T08:56:54;9.48;;;2.30;;
4986;SDS011;12674;51.500;7.552;2022-09-25T08:59:00;14.70;;;2.60;;
4986;SDS011;12674;51.500;7.552;2022-09-25T09:01:10;13.82;;;2.40;;
4986;SDS011;12674;51.500;7.552;2022-09-25T09:03:15;9.45;;;3.13;;
4986;SDS011;12674;51.500;7.552;2022-09-25T09:05:19;12.00;;;2.35;;
4986;SDS011;12674;51.500;7.552;2022-09-25T09:07:26;12.13;;;2.08;;
4986;SDS011;12674;51.500;7.552;2022-09-25T09:09:35;9.93;;;2.60;;
4986;SDS011;12674;51.500;7.552;2022-09-25T09:11:42;13.73;;;2.97;;
4986;SDS011;12674;51.500;7.552;2022-09-25T09:13:48;14.15;;;3.25;;
4986;SDS011;12674;51.500;7.552;2022-09-25T09:15:56;16.80;;;2.90;;
4986;SDS011;12674;51.500;7.552;2022-09-25T09:18:04;12.63;;;3.00;;
4986;SDS011;12674;51.500;7.552;2022-09-25T09:20:17;11.95;;;2.80;;
4986;SDS011;12674;51.500;7.552;2022-09-25T09:22:22;15.20;;;2.50;;
4986;SDS011;12674;51.500;7.552;2022-09-25T09:24:30;14.98;;;2.72;;
4986;SDS011;12674;51.500;7.552;2022-09-25T09:26:51;9.52;;;2.80;;
4986;SDS011;12674;51.500;7.552;2022-09-25T09:29:11;8.07;;;2.30;;
4986;SDS011;12674;51.500;7.552;2022-09-25T09:31:21;8.07;;;2.15;;
4986;SDS011;12674;51.500;7.552;2022-09-25T09:33:34;9.77;;;2.05;;
4986;SDS011;12674;51.500;7.552;2022-09-25T09:35:46;11.45;;;2.25;;
4986;SDS011;12674;51.500;7.552;2022-09-25T09:38:05;9.15;;;2.25;;
4986;SDS011;12674;51.500;7.552;2022-09-25T09:40:28;10.75;;;2.15;;
4986;SDS011;12674;51.500;7.552;2022-09-25T09:42:38;10.98;;;2.40;;
4986;SDS011;12674;51.500;7.552;2022-09-25T09:44:48;7.15;;;1.88;;
4986;SDS011;12674;51.500;7.552;2022-09-25T09:46:59;5.25;;;1.63;;
4986;SDS011;12674;51.500;7.552;2022-09-25T09:49:11;8.25;;;1.33;;
4986;SDS011;12674;51.500;7.552;2022-09-25T09:51:17;15.10;;;2.45;;
4986;SDS011;12674;51.500;7.552;2022-09-25T09:53:24;6.88;;;1.65;;
4986;SDS011;12674;51.500;7.552;2022-09-25T09:55:34;6.57;;;2.03;;
4986;SDS011;12674;51.500;7.552;2022-09-25T09:57:42;12.57;;;2.33;;
4986;SDS011;12674;51.500;7.552;2022-09-25T09:59:48;7.55;;;2.00;;
4986;SDS011;12674;51.500;7.552;2022-09-25T10:01:57;6.22;;;1.65;;
4986;SDS011;12674;51.500;7.552;2022-09-25T10:04:03;9.20;;;1.70;;
4986;SDS011;12674;51.500;7.552;2022-09-25T10:06:07;5.70;;;1.48;;
4986;SDS011;12674;51.500;7.552;2022-09-25T10:08:12;6.30;;;1.67;;
4986;SDS011;12674;51.500;7.552;2022-09-25T10:13:30;9.30;;;2.08;;
4986;SDS011;12674;51.500;7.552;2022-09-25T10:15:35;7.95;;;1.80;;
4986;SDS011;12674;51.500;7.552;2022-09-25T10:17:41;7.65;;;1.75;;
4986;SDS011;12674;51.500;7.552;2022-09-25T10:19:46;6.57;;;1.52;;
4986;SDS011;12674;51.500;7.552;2022-09-25T10:21:51;8.00;;;1.55;;
4986;SDS011;12674;51.500;7.552;2022-09-25T10:23:55;13.30;;;3.00;;
4986;SDS011;12674;51.500;7.552;2022-09-25T10:26:00;5.60;;;1.23;;
4986;SDS011;12674;51.500;7.552;2022-09-25T10:28:19;13.18;;;1.50;;
4986;SDS011;12674;51.500;7.552;2022-09-25T10:30:25;6.45;;;1.67;;
4986;SDS011;12674;51.500;7.552;2022-09-25T10:32:28;5.07;;;1.50;;
4986;SDS011;12674;51.500;7.552;2022-09-25T10:34:31;7.18;;;1.58;;
4986;SDS011;12674;51.500;7.552;2022-09-25T10:36:37;6.30;;;1.63;;
4986;SDS011;12674;51.500;7.552;2022-09-25T10:38:44;5.53;;;1.63;;
4986;SDS011;12674;51.500;7.552;2022-09-25T10:40:59;5.13;;;1.38;;
4986;SDS011;12674;51.500;7.552;2022-09-25T10:43:15;13.57;;;1.67;;
4986;SDS011;12674;51.500;7.552;2022-09-25T10:45:30;11.68;;;1.77;;
4986;SDS011;12674;51.500;7.552;2022-09-25T10:47:38;10.77;;;1.48;;
4986;SDS011;12674;51.500;7.552;2022-09-25T10:50:06;9.48;;;1.67;;
4986;SDS011;12674;51.500;7.552;2022-09-25T10:52:13;7.50;;;1.33;;
4986;SDS011;12674;51.500;7.552;2022-09-25T10:54:17;3.13;;;1.25;;
4986;SDS011;12674;51.500;7.552;2022-09-25T10:56:20;6.80;;;1.75;;
4986;SDS011;12674;51.500;7.552;2022-09-25T10:58:29;4.53;;;1.23;;
4986;SDS011;12674;51.500;7.552;2022-09-25T11:00:40;7.07;;;1.85;;
4986;SDS011;12674;51.500;7.552;2022-09-25T11:02:44;4.50;;;1.35;;
4986;SDS011;12674;51.500;7.552;2022-09-25T11:04:48;5.65;;;1.50;;
4986;SDS011;12674;51.500;7.552;2022-09-25T11:06:56;9.82;;;1.30;;
4986;SDS011;12674;51.500;7.552;2022-09-25T11:09:04;4.53;;;1.05;;
4986;SDS011;12674;51.500;7.552;2022-09-25T11:11:18;5.75;;;1.88;;
4986;SDS011;12674;51.500;7.552;2022-09-25T11:13:29;2.45;;;1.35;;
4986;SDS011;12674;51.500;7.552;2022-09-25T11:15:38;3.97;;;1.30;;
4986;SDS011;12674;51.500;7.552;2022-09-25T11:17:52;6.25;;;1.38;;
4986;SDS011;12674;51.500;7.552;2022-09-25T11:20:10;9.95;;;2.10;;
4986;SDS011;12674;51.500;7.552;2022-09-25T11:22:25;8.00;;;2.08;;
4986;SDS011;12674;51.500;7.552;2022-09-25T11:24:41;8.00;;;2.13;;
4986;SDS011;12674;51.500;7.552;2022-09-25T11:26:50;7.40;;;1.60;;
4986;SDS011;12674;51.500;7.552;2022-09-25T11:28:59;4.97;;;1.30;;
4986;SDS011;12674;51.500;7.552;2022-09-25T11:31:14;5.28;;;1.42;;
4986;SDS011;12674;51.500;7.552;2022-09-25T11:33:28;9.13;;;1.77;;
4986;SDS011;12674;51.500;7.552;2022-09-25T11:35:46;11.02;;;1.60;;
4986;SDS011;12674;51.500;7.552;2022-09-25T11:37:55;3.97;;;1.20;;
4986;SDS011;12674;51.500;7.552;2022-09-25T11:41:29;3.92;;;1.35;;
4986;SDS011;12674;51.500;7.552;2022-09-25T11:43:44;3.65;;;1.13;;
4986;SDS011;12674;51.500;7.552;2022-09-25T11:46:00;7.93;;;1.25;;
4986;SDS011;12674;51.500;7.552;2022-09-25T11:48:24;7.70;;;1.60;;
4986;SDS011;12674;51.500;7.552;2022-09-25T11:50:38;6.40;;;1.80;;
4986;SDS011;12674;51.500;7.552;2022-09-25T11:52:53;5.85;;;1.20;;
4986;SDS011;12674;51.500;7.552;2022-09-25T11:57:55;5.22;;;1.23;;
4986;SDS011;12674;51.500;7.552;2022-09-25T12:00:12;3.75;;;1.30;;
4986;SDS011;12674;51.500;7.552;2022-09-25T12:02:38;3.42;;;1.10;;
4986;SDS011;12674;51.500;7.552;2022-09-25T12:07:36;2.08;;;1.23;;
4986;SDS011;12674;51.500;7.552;2022-09-25T12:10:05;5.18;;;1.05;;
4986;SDS011;12674;51.500;7.552;2022-09-25T12:12:31;6.25;;;1.48;;
4986;SDS011;12674;51.500;7.552;2022-09-25T12:14:44;5.93;;;1.60;;
4986;SDS011;12674;51.500;7.552;2022-09-25T12:16:54;5.93;;;1.10;;
4986;SDS011;12674;51.500;7.552;2022-09-25T12:19:14;4.63;;;1.30;;
4986;SDS011;12674;51.500;7.552;2022-09-25T12:21:25;5.28;;;1.10;;
4986;SDS011;12674;51.500;7.552;2022-09-25T12:23:36;4.75;;;1.30;;
4986;SDS011;12674;51.500;7.552;2022-09-25T12:28:20;3.88;;;1.30;;
4986;SDS011;12674;51.500;7.552;2022-09-25T12:30:31;2.80;;;1.23;;
4986;SDS011;12674;51.500;7.552;2022-09-25T12:32:52;3.50;;;1.40;;
4986;SDS011;12674;51.500;7.552;2022-09-25T12:35:17;5.35;;;1.20;;
4986;SDS011;12674;51.500;7.552;2022-09-25T12:37:32;3.63;;;1.35;;
4986;SDS011;12674;51.500;7.552;2022-09-25T12:39:45;5.45;;;1.20;;
4986;SDS011;12674;51.500;7.552;2022-09-25T12:41:55;3.88;;;1.20;;
4986;SDS011;12674;51.500;7.552;2022-09-25T12:44:13;3.90;;;0.98;;
4986;SDS011;12674;51.500;7.552;2022-09-25T12:46:30;5.63;;;1.20;;
4986;SDS011;12674;51.500;7.552;2022-09-25T12:48:44;9.60;;;1.45;;
4986;SDS011;12674;51.500;7.552;2022-09-25T12:50:56;3.60;;;1.10;;
4986;SDS011;12674;51.500;7.552;2022-09-25T12:53:09;11.05;;;1.88;;
4986;SDS011;12674;51.500;7.552;2022-09-25T12:55:24;4.10;;;1.48;;
4986;SDS011;12674;51.500;7.552;2022-09-25T12:57:31;2.72;;;1.20;;
4986;SDS011;12674;51.500;7.552;2022-09-25T12:59:40;6.60;;;1.40;;
4986;SDS011;12674;51.500;7.552;2022-09-25T13:01:54;2.78;;;1.20;;
4986;SDS011;12674;51.500;7.552;2022-09-25T13:04:05;3.42;;;1.45;;